sensor_id;sensor_type;location;lat;lon;timestamp;P1;durP1;ratioP1;P2;durP2;ratioP2
37593;SDS011;23441;50.856;6.076;2022-12-18T00:01:42;38.37;;;18.97;;
37593;SDS011;23441;50.856;6.076;2022-12-18T00:04:11;31.77;;;18.40;;
37593;SDS011;23441;50.856;6.076;2022-12-18T00:06:44;38.63;;;18.90;;
37593;SDS011;23441;50.856;6.076;2022-12-18T00:09:10;38.60;;;19.10;;
37593;SDS011;23441;50.856;6.076;2022-12-18T00:11:35;38.93;;;20.17;;
37593;SDS011;23441;50.856;6.076;2022-12-18T00:14:01;41.23;;;19.63;;
37593;SDS011;23441;50.856;6.076;2022-12-18T00:16:27;50.53;;;23.30;;
37593;SDS011;23441;50.856;6.076;2022-12-18T00:18:55;46.37;;;21.67;;
37593;SDS011;23441;50.856;6.076;2022-12-18T00:21:25;51.00;;;22.37;;
37593;SDS011;23441;50.856;6.076;2022-12-18T00:23:51;47.07;;;21.73;;
37593;SDS011;23441;50.856;6.076;2022-12-18T00:26:18;40.97;;;20.53;;
37593;SDS011;23441;50.856;6.076;2022-12-18T00:28:47;45.87;;;21.10;;
37593;SDS011;23441;50.856;6.076;2022-12-18T00:31:14;33.37;;;17.33;;
37593;SDS011;23441;50.856;6.076;2022-12-18T00:33:41;41.77;;;19.97;;
37593;SDS011;23441;50.856;6.076;2022-12-18T00:36:12;37.63;;;18.17;;
37593;SDS011;23441;50.856;6.076;2022-12-18T00:38:48;38.70;;;18.50;;
37593;SDS011;23441;50.856;6.076;2022-12-18T00:41:14;35.60;;;17.93;;
37593;SDS011;23441;50.856;6.076;2022-12-18T00:44:01;34.17;;;17.80;;
37593;SDS011;23441;50.856;6.076;2022-12-18T00:46:27;30.07;;;16.57;;
37593;SDS011;23441;50.856;6.076;2022-12-18T00:48:53;39.17;;;17.93;;
37593;SDS011;23441;50.856;6.076;2022-12-18T00:51:18;37.00;;;17.43;;
37593;SDS011;23441;50.856;6.076;2022-12-18T00:53:44;34.60;;;18.77;;
37593;SDS011;23441;50.856;6.076;2022-12-18T00:56:10;37.90;;;17.10;;
37593;SDS011;23441;50.856;6.076;2022-12-18T00:58:35;39.13;;;17.87;;
37593;SDS011;23441;50.856;6.076;2022-12-18T01:01:01;33.43;;;17.60;;
37593;SDS011;23441;50.856;6.076;2022-12-18T01:03:28;34.17;;;17.57;;
37593;SDS011;23441;50.856;6.076;2022-12-18T01:05:53;37.73;;;17.53;;
37593;SDS011;23441;50.856;6.076;2022-12-18T01:08:19;36.43;;;17.47;;
37593;SDS011;23441;50.856;6.076;2022-12-18T01:10:45;34.13;;;17.00;;
37593;SDS011;23441;50.856;6.076;2022-12-18T01:13:10;38.43;;;17.30;;
37593;SDS011;23441;50.856;6.076;2022-12-18T01:15:36;29.80;;;16.63;;
37593;SDS011;23441;50.856;6.076;2022-12-18T01:18:05;35.77;;;16.43;;
37593;SDS011;23441;50.856;6.076;2022-12-18T01:20:31;36.00;;;16.17;;
37593;SDS011;23441;50.856;6.076;2022-12-18T01:22:57;34.07;;;16.80;;
37593;SDS011;23441;50.856;6.076;2022-12-18T01:25:23;32.67;;;16.83;;
37593;SDS011;23441;50.856;6.076;2022-12-18T01:27:49;40.47;;;17.80;;
37593;SDS011;23441;50.856;6.076;2022-12-18T01:30:14;30.70;;;14.97;;
37593;SDS011;23441;50.856;6.076;2022-12-18T01:32:40;32.10;;;16.43;;
37593;SDS011;23441;50.856;6.076;2022-12-18T01:35:06;36.90;;;16.87;;
37593;SDS011;23441;50.856;6.076;2022-12-18T01:37:32;34.77;;;16.97;;
37593;SDS011;23441;50.856;6.076;2022-12-18T01:39:57;27.57;;;13.93;;
37593;SDS011;23441;50.856;6.076;2022-12-18T01:42:23;25.67;;;13.10;;
37593;SDS011;23441;50.856;6.076;2022-12-18T01:52:41;19.20;;;10.50;;
37593;SDS011;23441;50.856;6.076;2022-12-18T01:55:10;15.63;;;8.83;;
37593;SDS011;23441;50.856;6.076;2022-12-18T01:57:37;16.87;;;8.90;;
37593;SDS011;23441;50.856;6.076;2022-12-18T02:00:05;13.03;;;7.77;;
37593;SDS011;23441;50.856;6.076;2022-12-18T02:02:34;20.73;;;8.63;;
37593;SDS011;23441;50.856;6.076;2022-12-18T02:04:59;21.73;;;8.70;;
37593;SDS011;23441;50.856;6.076;2022-12-18T02:10:53;15.50;;;8.17;;
37593;SDS011;23441;50.856;6.076;2022-12-18T02:18:47;13.53;;;7.77;;
37593;SDS011;23441;50.856;6.076;2022-12-18T02:23:52;15.60;;;7.67;;
37593;SDS011;23441;50.856;6.076;2022-12-18T02:26:36;14.70;;;8.60;;
37593;SDS011;23441;50.856;6.076;2022-12-18T02:29:10;18.53;;;9.53;;
37593;SDS011;23441;50.856;6.076;2022-12-18T02:31:40;17.17;;;8.90;;
37593;SDS011;23441;50.856;6.076;2022-12-18T02:34:09;16.50;;;8.93;;
37593;SDS011;23441;50.856;6.076;2022-12-18T02:36:38;16.70;;;8.00;;
37593;SDS011;23441;50.856;6.076;2022-12-18T02:39:05;19.17;;;9.67;;
37593;SDS011;23441;50.856;6.076;2022-12-18T02:41:34;18.57;;;9.63;;
37593;SDS011;23441;50.856;6.076;2022-12-18T02:44:01;15.33;;;8.50;;
37593;SDS011;23441;50.856;6.076;2022-12-18T02:46:41;16.77;;;8.80;;
37593;SDS011;23441;50.856;6.076;2022-12-18T02:52:01;16.97;;;9.00;;
37593;SDS011;23441;50.856;6.076;2022-12-18T02:54:52;15.57;;;8.53;;
37593;SDS011;23441;50.856;6.076;2022-12-18T03:00:12;13.97;;;7.93;;
37593;SDS011;23441;50.856;6.076;2022-12-18T03:02:45;24.50;;;9.03;;
37593;SDS011;23441;50.856;6.076;2022-12-18T03:05:13;21.20;;;9.63;;
37593;SDS011;23441;50.856;6.076;2022-12-18T03:07:56;15.13;;;8.90;;
37593;SDS011;23441;50.856;6.076;2022-12-18T03:10:29;18.17;;;8.60;;
37593;SDS011;23441;50.856;6.076;2022-12-18T03:13:08;21.63;;;9.40;;
37593;SDS011;23441;50.856;6.076;2022-12-18T03:15:45;17.03;;;9.07;;
37593;SDS011;23441;50.856;6.076;2022-12-18T03:18:35;20.30;;;8.57;;
37593;SDS011;23441;50.856;6.076;2022-12-18T03:21:10;22.47;;;9.03;;
37593;SDS011;23441;50.856;6.076;2022-12-18T03:23:47;15.93;;;8.30;;
37593;SDS011;23441;50.856;6.076;2022-12-18T03:26:20;16.63;;;8.90;;
37593;SDS011;23441;50.856;6.076;2022-12-18T03:28:53;17.13;;;8.70;;
37593;SDS011;23441;50.856;6.076;2022-12-18T03:31:24;22.63;;;9.13;;
37593;SDS011;23441;50.856;6.076;2022-12-18T03:33:54;21.97;;;9.77;;
37593;SDS011;23441;50.856;6.076;2022-12-18T03:36:21;22.03;;;8.97;;
37593;SDS011;23441;50.856;6.076;2022-12-18T03:38:48;16.03;;;9.17;;
37593;SDS011;23441;50.856;6.076;2022-12-18T03:41:16;19.17;;;9.30;;
37593;SDS011;23441;50.856;6.076;2022-12-18T03:43:53;22.40;;;10.10;;
37593;SDS011;23441;50.856;6.076;2022-12-18T03:46:40;17.20;;;9.53;;
37593;SDS011;23441;50.856;6.076;2022-12-18T03:51:54;20.00;;;9.83;;
37593;SDS011;23441;50.856;6.076;2022-12-18T03:54:28;18.30;;;9.47;;
37593;SDS011;23441;50.856;6.076;2022-12-18T03:56:57;21.53;;;9.10;;
37593;SDS011;23441;50.856;6.076;2022-12-18T03:59:26;20.80;;;9.67;;
37593;SDS011;23441;50.856;6.076;2022-12-18T04:01:53;19.37;;;9.30;;
37593;SDS011;23441;50.856;6.076;2022-12-18T04:04:22;21.63;;;9.00;;
37593;SDS011;23441;50.856;6.076;2022-12-18T04:06:49;19.80;;;10.10;;
37593;SDS011;23441;50.856;6.076;2022-12-18T04:09:15;25.13;;;9.93;;
37593;SDS011;23441;50.856;6.076;2022-12-18T04:11:41;21.30;;;9.73;;
37593;SDS011;23441;50.856;6.076;2022-12-18T04:14:09;18.17;;;9.73;;
37593;SDS011;23441;50.856;6.076;2022-12-18T04:16:35;21.93;;;9.90;;
37593;SDS011;23441;50.856;6.076;2022-12-18T04:19:00;19.40;;;9.83;;
37593;SDS011;23441;50.856;6.076;2022-12-18T04:21:26;22.30;;;10.00;;
37593;SDS011;23441;50.856;6.076;2022-12-18T04:23:52;22.10;;;10.97;;
37593;SDS011;23441;50.856;6.076;2022-12-18T04:26:17;23.17;;;10.03;;
37593;SDS011;23441;50.856;6.076;2022-12-18T04:28:43;21.20;;;9.83;;
37593;SDS011;23441;50.856;6.076;2022-12-18T04:31:08;24.43;;;10.93;;
37593;SDS011;23441;50.856;6.076;2022-12-18T04:33:34;21.70;;;11.40;;
37593;SDS011;23441;50.856;6.076;2022-12-18T04:36:00;21.07;;;10.60;;
37593;SDS011;23441;50.856;6.076;2022-12-18T04:38:26;19.23;;;10.13;;
37593;SDS011;23441;50.856;6.076;2022-12-18T04:40:51;26.97;;;10.03;;
37593;SDS011;23441;50.856;6.076;2022-12-18T04:43:17;25.97;;;10.00;;
37593;SDS011;23441;50.856;6.076;2022-12-18T04:45:42;22.77;;;11.40;;
37593;SDS011;23441;50.856;6.076;2022-12-18T04:48:08;24.03;;;11.57;;
37593;SDS011;23441;50.856;6.076;2022-12-18T04:50:34;24.73;;;10.80;;
37593;SDS011;23441;50.856;6.076;2022-12-18T04:52:59;25.47;;;10.13;;
37593;SDS011;23441;50.856;6.076;2022-12-18T04:55:25;29.00;;;11.93;;
37593;SDS011;23441;50.856;6.076;2022-12-18T04:57:51;25.13;;;11.47;;
37593;SDS011;23441;50.856;6.076;2022-12-18T05:00:17;31.27;;;12.00;;
37593;SDS011;23441;50.856;6.076;2022-12-18T05:02:43;24.53;;;11.60;;
37593;SDS011;23441;50.856;6.076;2022-12-18T05:05:09;29.37;;;11.50;;
37593;SDS011;23441;50.856;6.076;2022-12-18T05:07:35;28.87;;;11.50;;
37593;SDS011;23441;50.856;6.076;2022-12-18T05:10:00;24.93;;;10.43;;
37593;SDS011;23441;50.856;6.076;2022-12-18T05:12:26;28.07;;;11.50;;
37593;SDS011;23441;50.856;6.076;2022-12-18T05:14:52;22.93;;;10.83;;
37593;SDS011;23441;50.856;6.076;2022-12-18T05:17:17;22.77;;;10.53;;
37593;SDS011;23441;50.856;6.076;2022-12-18T05:19:43;21.17;;;10.43;;
37593;SDS011;23441;50.856;6.076;2022-12-18T05:22:09;20.80;;;10.83;;
37593;SDS011;23441;50.856;6.076;2022-12-18T05:24:35;20.83;;;10.90;;
37593;SDS011;23441;50.856;6.076;2022-12-18T05:27:01;28.87;;;10.77;;
37593;SDS011;23441;50.856;6.076;2022-12-18T05:29:26;23.93;;;10.90;;
37593;SDS011;23441;50.856;6.076;2022-12-18T05:31:52;28.90;;;12.77;;
37593;SDS011;23441;50.856;6.076;2022-12-18T05:34:18;23.57;;;10.87;;
37593;SDS011;23441;50.856;6.076;2022-12-18T05:36:43;25.53;;;11.90;;
37593;SDS011;23441;50.856;6.076;2022-12-18T05:39:09;35.63;;;12.00;;
37593;SDS011;23441;50.856;6.076;2022-12-18T05:41:34;26.13;;;11.90;;
37593;SDS011;23441;50.856;6.076;2022-12-18T05:44:00;23.03;;;11.93;;
37593;SDS011;23441;50.856;6.076;2022-12-18T05:46:26;22.40;;;11.30;;
37593;SDS011;23441;50.856;6.076;2022-12-18T05:48:51;24.60;;;11.47;;
37593;SDS011;23441;50.856;6.076;2022-12-18T05:51:19;26.77;;;12.40;;
37593;SDS011;23441;50.856;6.076;2022-12-18T05:53:46;27.03;;;12.80;;
37593;SDS011;23441;50.856;6.076;2022-12-18T05:56:13;25.93;;;11.83;;
37593;SDS011;23441;50.856;6.076;2022-12-18T05:58:40;25.40;;;12.00;;
37593;SDS011;23441;50.856;6.076;2022-12-18T06:01:14;25.40;;;10.97;;
37593;SDS011;23441;50.856;6.076;2022-12-18T06:03:43;26.20;;;11.60;;
37593;SDS011;23441;50.856;6.076;2022-12-18T06:06:42;26.70;;;12.20;;
37593;SDS011;23441;50.856;6.076;2022-12-18T06:09:01;25.83;;;11.63;;
37593;SDS011;23441;50.856;6.076;2022-12-18T06:11:33;23.13;;;11.83;;
37593;SDS011;23441;50.856;6.076;2022-12-18T06:14:00;24.47;;;12.83;;
37593;SDS011;23441;50.856;6.076;2022-12-18T06:16:26;26.37;;;11.43;;
37593;SDS011;23441;50.856;6.076;2022-12-18T06:18:53;27.20;;;11.10;;
37593;SDS011;23441;50.856;6.076;2022-12-18T06:21:20;26.97;;;10.83;;
37593;SDS011;23441;50.856;6.076;2022-12-18T06:23:46;24.80;;;10.93;;
37593;SDS011;23441;50.856;6.076;2022-12-18T06:26:12;22.60;;;10.90;;
37593;SDS011;23441;50.856;6.076;2022-12-18T06:28:38;24.10;;;11.17;;
37593;SDS011;23441;50.856;6.076;2022-12-18T06:31:05;25.63;;;11.60;;
37593;SDS011;23441;50.856;6.076;2022-12-18T06:33:31;25.53;;;11.20;;
37593;SDS011;23441;50.856;6.076;2022-12-18T06:36:06;23.63;;;11.03;;
37593;SDS011;23441;50.856;6.076;2022-12-18T06:38:35;22.93;;;11.20;;
37593;SDS011;23441;50.856;6.076;2022-12-18T06:41:08;22.63;;;10.77;;
37593;SDS011;23441;50.856;6.076;2022-12-18T06:43:36;24.07;;;11.50;;
37593;SDS011;23441;50.856;6.076;2022-12-18T06:46:02;20.20;;;10.70;;
37593;SDS011;23441;50.856;6.076;2022-12-18T06:48:29;21.97;;;10.63;;
37593;SDS011;23441;50.856;6.076;2022-12-18T06:50:55;23.97;;;10.93;;
37593;SDS011;23441;50.856;6.076;2022-12-18T06:53:20;24.63;;;11.30;;
37593;SDS011;23441;50.856;6.076;2022-12-18T06:55:47;24.80;;;10.33;;
37593;SDS011;23441;50.856;6.076;2022-12-18T06:58:12;22.73;;;11.87;;
37593;SDS011;23441;50.856;6.076;2022-12-18T07:00:38;22.57;;;11.13;;
37593;SDS011;23441;50.856;6.076;2022-12-18T07:03:04;27.53;;;12.07;;
37593;SDS011;23441;50.856;6.076;2022-12-18T07:05:29;26.13;;;10.83;;
37593;SDS011;23441;50.856;6.076;2022-12-18T07:07:55;30.53;;;11.97;;
37593;SDS011;23441;50.856;6.076;2022-12-18T07:10:21;22.67;;;12.00;;
37593;SDS011;23441;50.856;6.076;2022-12-18T07:12:46;27.13;;;11.70;;
37593;SDS011;23441;50.856;6.076;2022-12-18T07:15:12;23.60;;;11.60;;
37593;SDS011;23441;50.856;6.076;2022-12-18T07:17:37;28.60;;;12.53;;
37593;SDS011;23441;50.856;6.076;2022-12-18T07:20:03;25.97;;;12.60;;
37593;SDS011;23441;50.856;6.076;2022-12-18T07:22:29;24.00;;;11.20;;
37593;SDS011;23441;50.856;6.076;2022-12-18T07:24:55;25.20;;;11.60;;
37593;SDS011;23441;50.856;6.076;2022-12-18T07:27:21;29.77;;;12.43;;
37593;SDS011;23441;50.856;6.076;2022-12-18T07:29:47;27.83;;;11.63;;
37593;SDS011;23441;50.856;6.076;2022-12-18T07:32:13;27.23;;;11.97;;
37593;SDS011;23441;50.856;6.076;2022-12-18T07:34:38;26.00;;;11.47;;
37593;SDS011;23441;50.856;6.076;2022-12-18T07:37:04;30.27;;;12.17;;
37593;SDS011;23441;50.856;6.076;2022-12-18T07:39:30;26.13;;;11.27;;
37593;SDS011;23441;50.856;6.076;2022-12-18T07:41:55;26.33;;;12.13;;
37593;SDS011;23441;50.856;6.076;2022-12-18T07:44:40;28.10;;;12.10;;
37593;SDS011;23441;50.856;6.076;2022-12-18T07:47:05;27.80;;;12.07;;
37593;SDS011;23441;50.856;6.076;2022-12-18T07:49:31;25.33;;;12.47;;
37593;SDS011;23441;50.856;6.076;2022-12-18T07:51:57;26.50;;;12.20;;
37593;SDS011;23441;50.856;6.076;2022-12-18T07:54:23;25.50;;;12.30;;
37593;SDS011;23441;50.856;6.076;2022-12-18T07:56:49;23.67;;;11.40;;
37593;SDS011;23441;50.856;6.076;2022-12-18T07:59:15;30.57;;;13.50;;
37593;SDS011;23441;50.856;6.076;2022-12-18T08:01:41;24.93;;;11.73;;
37593;SDS011;23441;50.856;6.076;2022-12-18T08:04:07;23.87;;;12.40;;
37593;SDS011;23441;50.856;6.076;2022-12-18T08:06:32;27.23;;;12.00;;
37593;SDS011;23441;50.856;6.076;2022-12-18T08:08:58;25.27;;;12.70;;
37593;SDS011;23441;50.856;6.076;2022-12-18T08:11:24;28.00;;;12.67;;
37593;SDS011;23441;50.856;6.076;2022-12-18T08:13:52;25.77;;;12.53;;
37593;SDS011;23441;50.856;6.076;2022-12-18T08:16:18;28.67;;;13.53;;
37593;SDS011;23441;50.856;6.076;2022-12-18T08:18:44;30.27;;;13.47;;
37593;SDS011;23441;50.856;6.076;2022-12-18T08:21:17;26.10;;;12.20;;
37593;SDS011;23441;50.856;6.076;2022-12-18T08:23:46;27.63;;;13.73;;
37593;SDS011;23441;50.856;6.076;2022-12-18T08:26:12;27.70;;;13.53;;
37593;SDS011;23441;50.856;6.076;2022-12-18T08:28:38;29.77;;;13.67;;
37593;SDS011;23441;50.856;6.076;2022-12-18T08:31:05;28.03;;;13.57;;
37593;SDS011;23441;50.856;6.076;2022-12-18T08:33:32;31.13;;;13.40;;
37593;SDS011;23441;50.856;6.076;2022-12-18T08:35:58;33.77;;;14.33;;
37593;SDS011;23441;50.856;6.076;2022-12-18T08:38:24;31.57;;;13.27;;
37593;SDS011;23441;50.856;6.076;2022-12-18T08:40:53;37.57;;;14.27;;
37593;SDS011;23441;50.856;6.076;2022-12-18T08:43:30;28.63;;;13.37;;
37593;SDS011;23441;50.856;6.076;2022-12-18T08:46:17;29.23;;;12.33;;
37593;SDS011;23441;50.856;6.076;2022-12-18T08:48:44;29.17;;;13.37;;
37593;SDS011;23441;50.856;6.076;2022-12-18T08:51:09;31.53;;;14.27;;
37593;SDS011;23441;50.856;6.076;2022-12-18T08:53:36;30.17;;;14.17;;
37593;SDS011;23441;50.856;6.076;2022-12-18T08:56:03;25.67;;;13.37;;
37593;SDS011;23441;50.856;6.076;2022-12-18T08:58:29;36.27;;;14.87;;
37593;SDS011;23441;50.856;6.076;2022-12-18T09:00:59;34.73;;;14.40;;
37593;SDS011;23441;50.856;6.076;2022-12-18T09:03:28;31.50;;;14.00;;
37593;SDS011;23441;50.856;6.076;2022-12-18T09:05:54;26.83;;;12.30;;
37593;SDS011;23441;50.856;6.076;2022-12-18T09:08:20;28.63;;;13.93;;
37593;SDS011;23441;50.856;6.076;2022-12-18T09:10:46;28.67;;;12.80;;
37593;SDS011;23441;50.856;6.076;2022-12-18T09:13:14;28.57;;;12.67;;
37593;SDS011;23441;50.856;6.076;2022-12-18T09:15:41;27.20;;;13.23;;
37593;SDS011;23441;50.856;6.076;2022-12-18T09:18:07;25.77;;;12.20;;
37593;SDS011;23441;50.856;6.076;2022-12-18T09:20:34;26.73;;;13.13;;
37593;SDS011;23441;50.856;6.076;2022-12-18T09:23:01;27.87;;;13.10;;
37593;SDS011;23441;50.856;6.076;2022-12-18T09:25:26;25.53;;;13.60;;
37593;SDS011;23441;50.856;6.076;2022-12-18T09:27:58;27.27;;;12.93;;
37593;SDS011;23441;50.856;6.076;2022-12-18T09:30:24;23.83;;;12.13;;
37593;SDS011;23441;50.856;6.076;2022-12-18T09:32:50;28.10;;;13.10;;
37593;SDS011;23441;50.856;6.076;2022-12-18T09:35:15;27.20;;;13.07;;
37593;SDS011;23441;50.856;6.076;2022-12-18T09:37:41;24.13;;;12.83;;
37593;SDS011;23441;50.856;6.076;2022-12-18T09:40:12;30.77;;;13.50;;
37593;SDS011;23441;50.856;6.076;2022-12-18T09:42:41;25.93;;;13.47;;
37593;SDS011;23441;50.856;6.076;2022-12-18T09:45:12;25.37;;;12.43;;
37593;SDS011;23441;50.856;6.076;2022-12-18T09:47:39;25.00;;;12.70;;
37593;SDS011;23441;50.856;6.076;2022-12-18T09:50:52;23.97;;;12.70;;
37593;SDS011;23441;50.856;6.076;2022-12-18T09:52:58;27.03;;;13.50;;
37593;SDS011;23441;50.856;6.076;2022-12-18T09:55:34;25.23;;;12.97;;
37593;SDS011;23441;50.856;6.076;2022-12-18T09:58:06;25.63;;;13.00;;
37593;SDS011;23441;50.856;6.076;2022-12-18T10:00:41;24.50;;;12.80;;
37593;SDS011;23441;50.856;6.076;2022-12-18T10:03:11;26.87;;;12.77;;
37593;SDS011;23441;50.856;6.076;2022-12-18T10:08:29;24.70;;;13.10;;
37593;SDS011;23441;50.856;6.076;2022-12-18T10:11:37;25.47;;;13.30;;
37593;SDS011;23441;50.856;6.076;2022-12-18T10:19:43;30.10;;;14.47;;
37593;SDS011;23441;50.856;6.076;2022-12-18T10:25:06;27.80;;;14.27;;
37593;SDS011;23441;50.856;6.076;2022-12-18T10:27:44;28.90;;;14.17;;
37593;SDS011;23441;50.856;6.076;2022-12-18T10:30:15;24.80;;;13.47;;
37593;SDS011;23441;50.856;6.076;2022-12-18T10:32:42;30.37;;;14.93;;
37593;SDS011;23441;50.856;6.076;2022-12-18T10:35:13;26.57;;;14.33;;
37593;SDS011;23441;50.856;6.076;2022-12-18T10:38:00;26.97;;;14.23;;
37593;SDS011;23441;50.856;6.076;2022-12-18T10:40:26;28.73;;;14.63;;
37593;SDS011;23441;50.856;6.076;2022-12-18T10:43:11;23.83;;;13.20;;
37593;SDS011;23441;50.856;6.076;2022-12-18T10:45:38;27.00;;;14.10;;
37593;SDS011;23441;50.856;6.076;2022-12-18T10:48:04;24.53;;;13.80;;
37593;SDS011;23441;50.856;6.076;2022-12-18T10:50:42;25.50;;;13.83;;
37593;SDS011;23441;50.856;6.076;2022-12-18T10:53:13;27.17;;;13.30;;
37593;SDS011;23441;50.856;6.076;2022-12-18T10:55:54;30.30;;;14.83;;
37593;SDS011;23441;50.856;6.076;2022-12-18T10:58:32;30.33;;;15.43;;
37593;SDS011;23441;50.856;6.076;2022-12-18T11:01:07;27.13;;;14.43;;
37593;SDS011;23441;50.856;6.076;2022-12-18T11:03:35;32.23;;;14.83;;
37593;SDS011;23441;50.856;6.076;2022-12-18T11:08:34;29.43;;;15.57;;
37593;SDS011;23441;50.856;6.076;2022-12-18T11:10:59;29.53;;;15.43;;
37593;SDS011;23441;50.856;6.076;2022-12-18T11:13:26;29.53;;;14.50;;
37593;SDS011;23441;50.856;6.076;2022-12-18T11:15:54;26.50;;;14.43;;
37593;SDS011;23441;50.856;6.076;2022-12-18T11:20:52;26.03;;;14.13;;
37593;SDS011;23441;50.856;6.076;2022-12-18T11:23:23;28.60;;;14.37;;
37593;SDS011;23441;50.856;6.076;2022-12-18T11:25:50;28.70;;;15.53;;
37593;SDS011;23441;50.856;6.076;2022-12-18T11:31:08;27.07;;;14.10;;
37593;SDS011;23441;50.856;6.076;2022-12-18T11:36:21;31.50;;;15.27;;
37593;SDS011;23441;50.856;6.076;2022-12-18T11:38:47;30.77;;;15.87;;
37593;SDS011;23441;50.856;6.076;2022-12-18T11:41:30;31.13;;;16.43;;
37593;SDS011;23441;50.856;6.076;2022-12-18T11:44:26;29.43;;;15.17;;
37593;SDS011;23441;50.856;6.076;2022-12-18T11:47:04;27.10;;;14.77;;
37593;SDS011;23441;50.856;6.076;2022-12-18T11:49:41;29.40;;;14.53;;
37593;SDS011;23441;50.856;6.076;2022-12-18T11:52:27;30.93;;;14.57;;
37593;SDS011;23441;50.856;6.076;2022-12-18T11:55:04;32.77;;;15.00;;
37593;SDS011;23441;50.856;6.076;2022-12-18T11:57:47;24.23;;;14.57;;
37593;SDS011;23441;50.856;6.076;2022-12-18T12:00:26;31.27;;;14.83;;
37593;SDS011;23441;50.856;6.076;2022-12-18T12:21:48;36.13;;;16.57;;
37593;SDS011;23441;50.856;6.076;2022-12-18T12:24:27;31.20;;;15.73;;
37593;SDS011;23441;50.856;6.076;2022-12-18T12:29:50;29.67;;;15.23;;
37593;SDS011;23441;50.856;6.076;2022-12-18T12:39:58;32.70;;;17.67;;
37593;SDS011;23441;50.856;6.076;2022-12-18T12:42:37;31.30;;;17.47;;
37593;SDS011;23441;50.856;6.076;2022-12-18T12:45:28;30.60;;;15.67;;
37593;SDS011;23441;50.856;6.076;2022-12-18T12:48:04;34.33;;;17.27;;
37593;SDS011;23441;50.856;6.076;2022-12-18T12:50:32;30.50;;;17.77;;
37593;SDS011;23441;50.856;6.076;2022-12-18T12:53:00;29.70;;;16.47;;
37593;SDS011;23441;50.856;6.076;2022-12-18T12:55:31;31.57;;;16.77;;
37593;SDS011;23441;50.856;6.076;2022-12-18T12:58:10;27.87;;;16.20;;
37593;SDS011;23441;50.856;6.076;2022-12-18T13:09:00;28.23;;;14.77;;
37593;SDS011;23441;50.856;6.076;2022-12-18T13:11:30;26.07;;;15.47;;
37593;SDS011;23441;50.856;6.076;2022-12-18T13:14:21;32.47;;;16.53;;
37593;SDS011;23441;50.856;6.076;2022-12-18T13:16:50;32.23;;;16.07;;
37593;SDS011;23441;50.856;6.076;2022-12-18T13:19:21;33.80;;;17.80;;
37593;SDS011;23441;50.856;6.076;2022-12-18T13:21:54;30.30;;;15.80;;
37593;SDS011;23441;50.856;6.076;2022-12-18T13:24:27;28.20;;;16.07;;
37593;SDS011;23441;50.856;6.076;2022-12-18T13:26:55;30.57;;;15.67;;
37593;SDS011;23441;50.856;6.076;2022-12-18T13:29:40;29.63;;;16.57;;
37593;SDS011;23441;50.856;6.076;2022-12-18T13:32:28;24.37;;;14.57;;
37593;SDS011;23441;50.856;6.076;2022-12-18T13:37:53;30.67;;;16.57;;
37593;SDS011;23441;50.856;6.076;2022-12-18T13:43:15;29.43;;;16.00;;
37593;SDS011;23441;50.856;6.076;2022-12-18T13:45:45;33.63;;;17.43;;
37593;SDS011;23441;50.856;6.076;2022-12-18T13:48:18;29.40;;;15.93;;
37593;SDS011;23441;50.856;6.076;2022-12-18T13:50:49;30.13;;;16.03;;
37593;SDS011;23441;50.856;6.076;2022-12-18T13:53:21;26.37;;;15.40;;
37593;SDS011;23441;50.856;6.076;2022-12-18T13:55:51;31.20;;;16.50;;
37593;SDS011;23441;50.856;6.076;2022-12-18T13:58:17;28.13;;;16.27;;
37593;SDS011;23441;50.856;6.076;2022-12-18T14:00:42;31.80;;;17.13;;
37593;SDS011;23441;50.856;6.076;2022-12-18T14:03:25;28.37;;;16.50;;
37593;SDS011;23441;50.856;6.076;2022-12-18T14:05:57;29.83;;;17.07;;
37593;SDS011;23441;50.856;6.076;2022-12-18T14:08:27;33.57;;;16.97;;
37593;SDS011;23441;50.856;6.076;2022-12-18T14:10:58;29.53;;;15.43;;
37593;SDS011;23441;50.856;6.076;2022-12-18T14:13:28;31.73;;;17.60;;
37593;SDS011;23441;50.856;6.076;2022-12-18T14:15:56;31.83;;;16.57;;
37593;SDS011;23441;50.856;6.076;2022-12-18T14:18:29;28.83;;;16.37;;
37593;SDS011;23441;50.856;6.076;2022-12-18T14:21:00;31.03;;;17.27;;
37593;SDS011;23441;50.856;6.076;2022-12-18T14:23:29;34.93;;;19.30;;
37593;SDS011;23441;50.856;6.076;2022-12-18T14:26:03;37.63;;;17.27;;
37593;SDS011;23441;50.856;6.076;2022-12-18T14:28:46;36.27;;;17.10;;
37593;SDS011;23441;50.856;6.076;2022-12-18T14:31:25;32.43;;;17.90;;
37593;SDS011;23441;50.856;6.076;2022-12-18T14:33:54;31.77;;;17.13;;
37593;SDS011;23441;50.856;6.076;2022-12-18T14:36:22;32.37;;;18.10;;
37593;SDS011;23441;50.856;6.076;2022-12-18T14:38:53;31.20;;;17.47;;
37593;SDS011;23441;50.856;6.076;2022-12-18T14:41:20;34.43;;;17.77;;
37593;SDS011;23441;50.856;6.076;2022-12-18T14:43:48;33.13;;;17.17;;
37593;SDS011;23441;50.856;6.076;2022-12-18T14:49:04;37.20;;;19.10;;
37593;SDS011;23441;50.856;6.076;2022-12-18T14:51:53;37.47;;;18.90;;
37593;SDS011;23441;50.856;6.076;2022-12-18T14:54:21;36.20;;;19.43;;
37593;SDS011;23441;50.856;6.076;2022-12-18T14:56:48;39.83;;;18.63;;
37593;SDS011;23441;50.856;6.076;2022-12-18T14:59:34;35.90;;;20.57;;
37593;SDS011;23441;50.856;6.076;2022-12-18T15:04:43;34.70;;;19.73;;
37593;SDS011;23441;50.856;6.076;2022-12-18T15:09:38;36.87;;;18.87;;
37593;SDS011;23441;50.856;6.076;2022-12-18T15:12:17;32.50;;;17.90;;
37593;SDS011;23441;50.856;6.076;2022-12-18T15:14:58;38.20;;;20.03;;
37593;SDS011;23441;50.856;6.076;2022-12-18T15:17:23;36.07;;;18.50;;
37593;SDS011;23441;50.856;6.076;2022-12-18T15:19:50;38.30;;;17.87;;
37593;SDS011;23441;50.856;6.076;2022-12-18T15:24:49;32.43;;;17.37;;
37593;SDS011;23441;50.856;6.076;2022-12-18T15:30:02;37.27;;;17.97;;
37593;SDS011;23441;50.856;6.076;2022-12-18T15:32:28;35.03;;;18.73;;
37593;SDS011;23441;50.856;6.076;2022-12-18T15:35:08;33.43;;;17.27;;
37593;SDS011;23441;50.856;6.076;2022-12-18T15:37:39;35.53;;;18.73;;
37593;SDS011;23441;50.856;6.076;2022-12-18T15:40:05;37.73;;;18.67;;
37593;SDS011;23441;50.856;6.076;2022-12-18T15:42:32;39.13;;;18.73;;
37593;SDS011;23441;50.856;6.076;2022-12-18T15:45:16;34.10;;;18.57;;
37593;SDS011;23441;50.856;6.076;2022-12-18T15:47:43;40.67;;;19.20;;
37593;SDS011;23441;50.856;6.076;2022-12-18T15:50:08;35.90;;;19.40;;
37593;SDS011;23441;50.856;6.076;2022-12-18T15:52:41;38.30;;;19.70;;
37593;SDS011;23441;50.856;6.076;2022-12-18T15:55:19;37.37;;;20.00;;
37593;SDS011;23441;50.856;6.076;2022-12-18T15:58:05;34.03;;;18.63;;
37593;SDS011;23441;50.856;6.076;2022-12-18T16:00:32;34.70;;;18.20;;
37593;SDS011;23441;50.856;6.076;2022-12-18T16:03:00;36.03;;;19.30;;
37593;SDS011;23441;50.856;6.076;2022-12-18T16:05:26;35.80;;;19.27;;
37593;SDS011;23441;50.856;6.076;2022-12-18T16:07:52;36.97;;;19.30;;
37593;SDS011;23441;50.856;6.076;2022-12-18T16:10:18;37.07;;;19.57;;
37593;SDS011;23441;50.856;6.076;2022-12-18T16:12:44;37.23;;;19.40;;
37593;SDS011;23441;50.856;6.076;2022-12-18T16:15:11;36.93;;;19.30;;
37593;SDS011;23441;50.856;6.076;2022-12-18T16:17:39;35.83;;;19.43;;
37593;SDS011;23441;50.856;6.076;2022-12-18T16:20:05;36.77;;;19.83;;
37593;SDS011;23441;50.856;6.076;2022-12-18T16:22:36;36.87;;;19.03;;
37593;SDS011;23441;50.856;6.076;2022-12-18T16:25:02;37.60;;;20.40;;